Time;durP1;ratioP1;P1;durP2;ratioP2;P2;SDS_P1;SDS_P2;PMS_P1;PMS_P2;Temp;Humidity;BMP_temperature;BMP_pressure;BME280_temperature;BME280_humidity;BME280_pressure;Samples;Min_cycle;Max_cycle;Signal;HPM_P1;HPM_P2
2022/08/09 00:00:17;;;;;;;1.90;1.80;;;24.30;40.60;;;;;;4808095;29;20489;-82
2022/08/09 00:02:42;;;;;;;2.63;1.70;;;24.30;40.50;;;;;;4802835;29;20978;-84
2022/08/09 00:05:08;;;;;;;2.00;1.90;;;24.30;40.50;;;;;;4811569;29;20469;-85
2022/08/09 00:07:34;;;;;;;2.03;1.80;;;24.30;40.50;;;;;;4799851;29;20254;-85
2022/08/09 00:10:00;;;;;;;2.13;2.03;;;24.30;40.50;;;;;;4807434;29;20229;-83
2022/08/09 00:12:25;;;;;;;1.90;1.80;;;24.30;40.50;;;;;;4795030;29;20245;-84
2022/08/09 00:14:51;;;;;;;2.00;1.90;;;24.30;40.50;;;;;;4794973;29;20225;-85
2022/08/09 00:17:17;;;;;;;1.97;1.87;;;24.30;40.60;;;;;;4806908;29;20708;-80
2022/08/09 00:19:42;;;;;;;1.70;1.60;;;24.30;40.50;;;;;;4806250;29;20245;-84
2022/08/09 00:22:08;;;;;;;1.63;1.53;;;24.30;40.50;;;;;;4802120;29;20230;-85
2022/08/09 00:24:34;;;;;;;2.00;1.90;;;24.30;40.60;;;;;;4794400;29;20245;-83
2022/08/09 00:27:00;;;;;;;1.80;1.70;;;24.30;40.60;;;;;;4796361;29;20273;-83
2022/08/09 00:29:27;;;;;;;1.73;1.63;;;24.30;40.50;;;;;;4790330;29;20218;-82
2022/08/09 00:31:53;;;;;;;1.90;1.80;;;24.20;40.40;;;;;;4796424;29;20491;-82
2022/08/09 00:34:19;;;;;;;1.90;1.80;;;24.30;40.60;;;;;;4791648;29;20486;-82
2022/08/09 00:36:44;;;;;;;2.00;1.90;;;24.20;40.40;;;;;;4814104;29;20227;-79
2022/08/09 00:39:10;;;;;;;1.90;1.77;;;24.20;40.50;;;;;;4810228;29;20483;-80
2022/08/09 00:41:36;;;;;;;2.07;1.97;;;24.20;40.50;;;;;;4813401;29;20254;-78
2022/08/09 00:44:02;;;;;;;1.87;1.77;;;24.20;40.50;;;;;;4792663;29;20279;-85
2022/08/09 00:46:28;;;;;;;1.87;1.77;;;24.20;40.50;;;;;;4810613;29;20455;-82
2022/08/09 00:48:54;;;;;;;2.00;1.90;;;24.20;40.50;;;;;;4809584;29;21051;-83
2022/08/09 00:51:20;;;;;;;2.07;1.97;;;24.20;40.40;;;;;;4814631;29;20284;-85
2022/08/09 00:53:45;;;;;;;2.10;2.00;;;24.20;40.50;;;;;;4795040;29;20231;-79
2022/08/09 00:56:12;;;;;;;2.10;2.00;;;24.20;40.60;;;;;;4797015;29;20230;-78
2022/08/09 00:58:38;;;;;;;2.00;1.90;;;24.20;40.40;;;;;;4806924;29;20227;-85
2022/08/09 01:01:17;;;;;;;1.63;1.53;;;24.20;40.50;;;;;;4792868;29;20522;-84
2022/08/09 01:04:02;;;;;;;1.80;1.70;;;24.20;40.50;;;;;;4791080;29;20230;-86
2022/08/09 01:06:35;;;;;;;1.90;1.80;;;24.20;40.40;;;;;;4794650;29;20993;-86
2022/08/09 01:09:25;;;;;;;1.80;1.70;;;24.20;40.50;;;;;;4796539;29;20988;-86
2022/08/09 01:11:59;;;;;;;2.10;2.00;;;24.20;40.50;;;;;;4805099;29;20478;-85
2022/08/09 01:14:59;;;;;;;2.30;2.10;;;24.20;40.40;;;;;;4797653;29;20487;-84
2022/08/09 01:17:31;;;;;;;2.00;1.90;;;24.20;40.50;;;;;;4780182;29;21036;-83
2022/08/09 01:20:07;;;;;;;1.87;1.77;;;24.20;40.50;;;;;;4806630;29;20496;-86
2022/08/09 01:22:53;;;;;;;1.80;1.70;;;24.20;40.50;;;;;;4797536;29;20449;-85
2022/08/09 01:25:42;;;;;;;1.90;1.80;;;24.20;40.50;;;;;;4806321;29;20489;-79
2022/08/09 01:28:09;;;;;;;2.57;1.93;;;24.20;40.40;;;;;;4793500;29;20463;-86
2022/08/09 01:30:37;;;;;;;1.93;1.83;;;24.20;40.50;;;;;;4809030;29;20463;-82
2022/08/09 01:33:07;;;;;;;2.20;2.10;;;24.20;40.50;;;;;;4797944;29;20489;-84
2022/08/09 01:35:48;;;;;;;1.73;1.63;;;24.20;40.50;;;;;;4809984;29;20480;-84
2022/08/09 01:38:22;;;;;;;1.93;1.83;;;24.20;40.40;;;;;;4807313;29;21516;-82
2022/08/09 01:40:54;;;;;;;2.00;1.90;;;24.20;40.50;;;;;;4808800;29;20474;-86
2022/08/09 01:43:21;;;;;;;2.00;1.80;;;24.20;40.50;;;;;;4792524;29;20986;-85
2022/08/09 01:45:47;;;;;;;2.60;1.83;;;24.20;40.50;;;;;;4795779;29;20494;-86
2022/08/09 01:48:16;;;;;;;2.10;2.00;;;24.20;40.50;;;;;;4807926;29;20484;-84
2022/08/09 01:50:46;;;;;;;1.87;1.77;;;24.20;40.50;;;;;;4815673;29;20515;-83
2022/08/09 01:53:13;;;;;;;2.00;1.90;;;24.20;40.50;;;;;;4796877;29;20505;-79
2022/08/09 01:55:40;;;;;;;2.50;1.90;;;24.20;40.50;;;;;;4791708;29;20483;-88
2022/08/09 01:58:08;;;;;;;2.37;2.17;;;24.20;40.50;;;;;;4807944;29;20470;-85
2022/08/09 02:00:34;;;;;;;2.07;1.97;;;24.20;40.50;;;;;;4795418;29;20477;-82
2022/08/09 02:03:01;;;;;;;2.40;2.20;;;24.20;40.40;;;;;;4813269;29;20487;-83
2022/08/09 02:05:28;;;;;;;4.13;2.23;;;24.20;40.40;;;;;;4809954;29;20492;-85
2022/08/09 02:07:59;;;;;;;2.20;2.10;;;24.20;40.40;;;;;;4794166;29;20458;-83
2022/08/09 02:10:32;;;;;;;2.40;2.30;;;24.20;40.40;;;;;;4807273;29;20985;-84
2022/08/09 02:13:02;;;;;;;1.90;1.80;;;24.20;40.40;;;;;;4807197;29;20475;-77
2022/08/09 02:15:29;;;;;;;2.23;1.90;;;24.20;40.40;;;;;;4805151;29;20757;-85
2022/08/09 02:17:55;;;;;;;1.90;1.80;;;24.20;40.50;;;;;;4802552;29;20482;-83
2022/08/09 02:20:22;;;;;;;2.00;1.90;;;24.20;40.40;;;;;;4784017;29;20996;-81
2022/08/09 02:22:52;;;;;;;2.10;2.00;;;24.10;40.30;;;;;;4769147;29;20707;-85
2022/08/09 02:25:22;;;;;;;2.10;2.00;;;24.20;40.50;;;;;;4774776;29;20471;-85
2022/08/09 02:28:02;;;;;;;1.80;1.70;;;24.20;40.40;;;;;;4769497;29;20487;-84
2022/08/09 02:30:36;;;;;;;2.40;2.30;;;24.20;40.40;;;;;;4776789;29;20659;-84
2022/08/09 02:33:03;;;;;;;2.10;2.00;;;24.20;40.40;;;;;;4773967;29;22532;-85
2022/08/09 02:35:33;;;;;;;2.10;2.00;;;24.10;40.30;;;;;;4776288;29;20547;-85
2022/08/09 02:38:00;;;;;;;1.73;1.63;;;24.20;40.30;;;;;;4771816;29;20484;-85
2022/08/09 02:40:28;;;;;;;2.20;2.10;;;24.20;40.40;;;;;;4772289;29;20488;-84
2022/08/09 02:42:55;;;;;;;1.97;1.87;;;24.10;40.40;;;;;;4771762;29;20473;-85
2022/08/09 02:45:28;;;;;;;1.83;1.73;;;24.10;40.20;;;;;;4773320;29;20460;-77
2022/08/09 02:47:59;;;;;;;2.00;1.90;;;24.10;40.20;;;;;;4771152;29;23152;-79
2022/08/09 02:50:29;;;;;;;1.87;1.77;;;24.10;40.30;;;;;;4767732;29;20482;-81
2022/08/09 02:53:15;;;;;;;2.10;2.00;;;24.10;40.20;;;;;;4777334;29;21025;-85
2022/08/09 02:55:45;;;;;;;1.83;1.73;;;24.10;40.20;;;;;;4775880;29;20491;-85
2022/08/09 02:58:12;;;;;;;1.83;1.73;;;24.10;40.30;;;;;;4772504;29;20468;-84
2022/08/09 03:00:39;;;;;;;1.93;1.83;;;24.10;40.20;;;;;;4771263;29;20528;-84
2022/08/09 03:03:06;;;;;;;1.93;1.83;;;24.10;40.30;;;;;;4771530;29;20472;-83
2022/08/09 03:05:32;;;;;;;1.90;1.80;;;24.10;40.20;;;;;;4772221;29;20487;-84
2022/08/09 03:08:00;;;;;;;1.83;1.73;;;24.10;40.30;;;;;;4775666;29;20530;-85
2022/08/09 03:10:27;;;;;;;1.80;1.70;;;24.10;40.20;;;;;;4771224;29;20904;-83
2022/08/09 03:12:55;;;;;;;1.90;1.80;;;24.10;40.20;;;;;;4768564;29;20485;-85
2022/08/09 03:15:22;;;;;;;2.00;1.90;;;24.10;40.20;;;;;;4769980;29;20562;-83
2022/08/09 03:17:48;;;;;;;1.70;1.60;;;24.10;40.20;;;;;;4767843;29;20850;-85
2022/08/09 03:20:14;;;;;;;1.90;1.80;;;24.10;40.20;;;;;;4788906;29;20491;-84
2022/08/09 03:22:43;;;;;;;2.07;1.80;;;24.10;40.20;;;;;;4806203;29;20481;-82
2022/08/09 03:25:10;;;;;;;1.70;1.60;;;24.10;40.20;;;;;;4806845;29;20243;-78
2022/08/09 03:27:37;;;;;;;2.00;1.90;;;24.10;40.20;;;;;;4788563;29;20462;-81
2022/08/09 03:30:03;;;;;;;2.10;2.00;;;24.10;40.20;;;;;;4800086;29;20461;-79
2022/08/09 03:32:32;;;;;;;1.80;1.70;;;24.10;40.20;;;;;;4811136;29;20476;-85
2022/08/09 03:34:59;;;;;;;2.20;2.10;;;24.10;40.20;;;;;;4809713;29;21102;-84
2022/08/09 03:37:25;;;;;;;2.17;2.07;;;24.10;40.20;;;;;;4809345;29;21044;-84
2022/08/09 03:39:51;;;;;;;1.93;1.83;;;24.10;40.20;;;;;;4808032;29;20876;-83
2022/08/09 03:42:16;;;;;;;1.97;1.87;;;24.10;40.20;;;;;;4795101;29;20522;-84
2022/08/09 03:44:42;;;;;;;1.90;1.80;;;24.10;40.20;;;;;;4808486;29;20246;-83
2022/08/09 03:47:08;;;;;;;1.93;1.80;;;24.10;40.20;;;;;;4807691;29;20230;-84
2022/08/09 03:49:35;;;;;;;2.10;2.00;;;24.10;40.20;;;;;;4806837;29;20230;-84
2022/08/09 03:52:01;;;;;;;1.80;1.70;;;24.10;40.20;;;;;;4807409;29;20318;-82
2022/08/09 03:54:33;;;;;;;2.07;1.97;;;24.00;40.10;;;;;;4795172;29;20501;-82
2022/08/09 03:57:02;;;;;;;1.97;1.87;;;24.10;40.10;;;;;;4805717;29;20487;-81
2022/08/09 03:59:28;;;;;;;1.80;1.70;;;24.10;40.20;;;;;;4806419;29;20570;-83
2022/08/09 04:01:57;;;;;;;2.10;2.00;;;24.10;40.10;;;;;;4800572;29;20515;-77
2022/08/09 04:04:23;;;;;;;1.90;1.80;;;24.10;40.10;;;;;;4797909;29;20475;-82
2022/08/09 04:06:48;;;;;;;2.00;1.90;;;24.10;40.10;;;;;;4793567;29;21050;-80
2022/08/09 04:09:14;;;;;;;2.10;2.00;;;24.10;40.20;;;;;;4809885;29;20475;-83
2022/08/09 04:12:07;;;;;;;1.90;1.80;;;24.10;40.10;;;;;;4804792;29;20721;-79
2022/08/09 04:14:32;;;;;;;1.83;1.73;;;24.10;40.10;;;;;;4760787;29;21117;-78
2022/08/09 04:16:59;;;;;;;2.00;1.90;;;24.10;40.10;;;;;;4783665;29;20494;-78
2022/08/09 04:19:24;;;;;;;2.17;2.07;;;24.10;40.10;;;;;;4786622;29;20500;-79
2022/08/09 04:21:50;;;;;;;1.90;1.80;;;24.10;40.10;;;;;;4788005;29;20238;-79
2022/08/09 04:24:16;;;;;;;2.13;1.83;;;24.10;40.00;;;;;;4794915;29;20252;-80
2022/08/09 04:26:41;;;;;;;1.90;1.80;;;24.20;40.00;;;;;;4791828;29;21420;-82
2022/08/09 04:29:07;;;;;;;1.83;1.73;;;24.20;40.00;;;;;;4783953;29;20230;-82
2022/08/09 04:31:33;;;;;;;2.20;2.10;;;24.20;40.00;;;;;;4803802;29;20240;-83
2022/08/09 04:33:59;;;;;;;1.97;1.87;;;24.20;40.00;;;;;;4790238;29;20689;-79
2022/08/09 04:36:27;;;;;;;1.83;1.73;;;24.20;40.00;;;;;;4805241;29;20278;-83
2022/08/09 04:38:55;;;;;;;2.00;1.90;;;24.20;39.90;;;;;;4792132;29;20675;-80
2022/08/09 04:41:21;;;;;;;2.07;1.97;;;24.20;39.90;;;;;;4794717;29;20483;-83
2022/08/09 04:43:47;;;;;;;1.90;1.80;;;24.20;40.00;;;;;;4810570;29;20484;-83
2022/08/09 04:46:13;;;;;;;1.90;1.80;;;24.20;40.00;;;;;;4784546;29;20849;-71
2022/08/09 04:48:38;;;;;;;1.77;1.67;;;24.20;40.00;;;;;;4802681;29;20226;-81
2022/08/09 04:51:04;;;;;;;1.90;1.80;;;24.20;39.90;;;;;;4806735;29;20237;-71
2022/08/09 04:53:30;;;;;;;2.10;2.00;;;24.20;40.00;;;;;;4788746;29;23076;-75
2022/08/09 04:55:55;;;;;;;2.13;2.03;;;24.20;40.00;;;;;;4800316;29;20231;-76
2022/08/09 04:58:21;;;;;;;2.30;2.20;;;24.20;40.00;;;;;;4804518;29;20230;-75
2022/08/09 05:00:46;;;;;;;1.80;1.70;;;24.20;39.90;;;;;;4782678;29;20310;-76
2022/08/09 05:03:12;;;;;;;2.20;2.10;;;24.20;39.90;;;;;;4799551;29;20230;-76
2022/08/09 05:05:38;;;;;;;1.90;1.70;;;24.20;39.90;;;;;;4809599;29;21021;-75
2022/08/09 05:08:04;;;;;;;1.90;1.80;;;24.20;39.90;;;;;;4805904;29;20213;-76
2022/08/09 05:10:29;;;;;;;2.70;1.97;;;24.20;39.90;;;;;;4792310;29;20277;-79
2022/08/09 05:12:55;;;;;;;2.00;1.90;;;24.20;40.70;;;;;;4781451;29;20235;-79
2022/08/09 05:15:20;;;;;;;1.90;1.80;;;24.20;39.90;;;;;;4805680;29;20227;-79
2022/08/09 05:17:46;;;;;;;2.03;1.93;;;24.20;39.90;;;;;;4795577;29;20353;-79
2022/08/09 05:20:12;;;;;;;2.17;1.97;;;24.20;39.90;;;;;;4790433;29;20715;-79
2022/08/09 05:22:37;;;;;;;2.00;1.90;;;24.20;40.00;;;;;;4788614;29;20233;-80
2022/08/09 05:25:04;;;;;;;1.90;1.80;;;24.20;39.90;;;;;;4792103;29;20250;-79
2022/08/09 05:27:30;;;;;;;1.93;1.83;;;24.20;39.90;;;;;;4786293;29;20697;-78
2022/08/09 05:29:55;;;;;;;1.90;1.80;;;24.20;39.80;;;;;;4788975;29;20478;-78
2022/08/09 05:32:21;;;;;;;2.10;2.00;;;24.20;39.90;;;;;;4786603;29;20227;-79
2022/08/09 05:34:46;;;;;;;2.00;1.90;;;24.20;39.90;;;;;;4780750;29;20277;-78
2022/08/09 05:37:12;;;;;;;1.90;1.80;;;24.20;39.90;;;;;;4784588;29;20224;-77
2022/08/09 05:39:40;;;;;;;2.00;1.90;;;24.20;39.90;;;;;;4778691;29;20234;-78
2022/08/09 05:42:05;;;;;;;2.10;2.00;;;24.20;39.90;;;;;;4788906;29;20273;-77
2022/08/09 05:44:32;;;;;;;2.00;1.90;;;24.20;39.90;;;;;;4785523;29;20558;-78
2022/08/09 05:46:57;;;;;;;1.90;1.80;;;24.20;39.90;;;;;;4785421;29;20236;-76
2022/08/09 05:49:23;;;;;;;1.87;1.77;;;24.20;40.00;;;;;;4790953;29;20468;-77
2022/08/09 05:51:48;;;;;;;1.90;1.80;;;24.20;39.90;;;;;;4789187;29;20722;-75
2022/08/09 05:54:14;;;;;;;1.70;1.60;;;24.20;39.90;;;;;;4788468;29;20724;-74
2022/08/09 05:56:39;;;;;;;1.83;1.73;;;24.20;39.90;;;;;;4789528;29;20956;-76
2022/08/09 05:59:06;;;;;;;1.90;1.80;;;24.20;39.90;;;;;;4784689;29;20231;-72
2022/08/09 06:01:32;;;;;;;1.90;1.80;;;24.20;39.90;;;;;;4787017;29;20317;-75
2022/08/09 06:03:57;;;;;;;1.97;1.87;;;24.20;39.90;;;;;;4789164;29;20602;-73
2022/08/09 06:06:23;;;;;;;2.40;2.03;;;24.20;39.80;;;;;;4792003;29;20226;-73
2022/08/09 06:08:49;;;;;;;1.97;1.87;;;24.20;39.80;;;;;;4781185;29;20242;-77
2022/08/09 06:11:15;;;;;;;2.17;2.07;;;24.30;39.90;;;;;;4786143;29;20239;-73
2022/08/09 06:13:41;;;;;;;1.97;1.87;;;24.20;39.80;;;;;;4780600;29;21049;-75
2022/08/09 06:16:06;;;;;;;2.20;2.10;;;24.30;39.90;;;;;;4781184;29;20231;-76
2022/08/09 06:18:33;;;;;;;3.07;2.37;;;24.30;39.90;;;;;;4783063;29;20545;-75
2022/08/09 06:20:58;;;;;;;3.33;2.50;;;24.30;39.90;;;;;;4799479;29;20249;-75
2022/08/09 06:23:31;;;;;;;2.50;2.30;;;24.30;39.90;;;;;;4802687;29;20489;-78
2022/08/09 06:25:57;;;;;;;2.60;2.40;;;24.30;39.90;;;;;;4806355;29;20226;-78
2022/08/09 06:28:23;;;;;;;2.40;2.20;;;24.30;39.90;;;;;;4805228;29;20471;-77
2022/08/09 06:30:49;;;;;;;2.63;2.30;;;24.30;39.90;;;;;;4802323;29;20231;-77
2022/08/09 06:33:14;;;;;;;2.37;2.17;;;24.30;39.90;;;;;;4785821;29;20233;-77
2022/08/09 06:35:40;;;;;;;2.03;1.90;;;24.30;40.10;;;;;;4789198;29;20606;-77
2022/08/09 06:38:06;;;;;;;2.40;2.20;;;24.20;39.80;;;;;;4802547;29;20638;-76
2022/08/09 06:40:32;;;;;;;2.30;2.20;;;24.30;40.60;;;;;;4801623;29;20251;-76
2022/08/09 06:42:59;;;;;;;2.20;2.00;;;24.20;39.80;;;;;;4805971;29;20238;-77
2022/08/09 06:45:26;;;;;;;2.43;2.30;;;24.20;39.80;;;;;;4786025;29;20988;-76
2022/08/09 06:47:51;;;;;;;2.30;1.90;;;24.20;39.80;;;;;;4788291;29;20497;-72
2022/08/09 06:50:17;;;;;;;2.20;2.10;;;24.20;39.80;;;;;;4784606;29;20482;-75
2022/08/09 06:52:46;;;;;;;2.20;2.00;;;24.20;39.80;;;;;;4805213;29;20230;-74
2022/08/09 06:55:14;;;;;;;7.40;2.30;;;24.20;39.70;;;;;;4805408;29;20464;-78
2022/08/09 06:57:39;;;;;;;3.53;2.73;;;24.20;39.80;;;;;;4802364;29;20515;-75
2022/08/09 07:00:06;;;;;;;10.43;2.70;;;24.30;39.80;;;;;;4799864;29;20462;-73
2022/08/09 07:02:32;;;;;;;7.40;3.30;;;24.30;39.90;;;;;;4805639;29;20234;-76
2022/08/09 07:04:59;;;;;;;12.93;3.03;;;24.30;39.90;;;;;;4802907;29;20481;-77
2022/08/09 07:07:24;;;;;;;9.13;2.70;;;24.30;40.00;;;;;;4802915;29;20226;-77
2022/08/09 07:09:50;;;;;;;4.50;2.73;;;24.30;39.90;;;;;;4801573;29;21365;-77
2022/08/09 07:12:16;;;;;;;7.33;3.57;;;24.30;40.00;;;;;;4789231;29;20234;-77
2022/08/09 07:14:42;;;;;;;22.37;4.40;;;24.30;40.00;;;;;;4801096;29;20268;-77
2022/08/09 07:17:07;;;;;;;6.40;3.20;;;24.30;40.10;;;;;;4786158;29;20240;-72
2022/08/09 07:19:33;;;;;;;7.50;3.20;;;24.30;40.10;;;;;;4793046;29;20630;-77
2022/08/09 07:21:59;;;;;;;4.30;2.90;;;24.30;40.10;;;;;;4807901;29;20269;-73
2022/08/09 07:24:27;;;;;;;7.27;2.63;;;24.30;40.10;;;;;;4810729;29;20234;-79
2022/08/09 07:26:52;;;;;;;8.30;2.90;;;24.30;40.10;;;;;;4806037;29;20651;-77
2022/08/09 07:29:18;;;;;;;4.87;2.63;;;24.30;40.10;;;;;;4807052;29;20460;-79
2022/08/09 07:31:44;;;;;;;7.10;3.53;;;24.30;40.20;;;;;;4793717;29;20235;-78
2022/08/09 07:34:09;;;;;;;8.83;3.27;;;24.30;40.20;;;;;;4803380;29;20300;-76
2022/08/09 07:36:35;;;;;;;10.00;3.60;;;24.40;40.40;;;;;;4802808;29;20253;-74
2022/08/09 07:39:02;;;;;;;5.73;3.20;;;24.40;40.40;;;;;;4810850;29;20222;-75
2022/08/09 07:41:27;;;;;;;9.47;3.47;;;24.40;40.50;;;;;;4798053;29;20487;-77
2022/08/09 07:43:53;;;;;;;9.13;3.13;;;24.40;40.50;;;;;;4801484;29;20509;-78
2022/08/09 07:46:19;;;;;;;8.30;2.93;;;24.40;40.50;;;;;;4805584;29;20237;-82
2022/08/09 07:48:44;;;;;;;8.67;3.07;;;24.40;40.60;;;;;;4805266;29;20235;-80
2022/08/09 07:51:10;;;;;;;6.93;3.27;;;24.40;40.60;;;;;;4799776;29;20641;-79
2022/08/09 07:53:38;;;;;;;3.73;2.60;;;24.40;40.60;;;;;;4788190;29;20223;-80
2022/08/09 07:56:04;;;;;;;10.53;3.13;;;24.40;40.60;;;;;;4808733;29;20289;-72
2022/08/09 07:58:29;;;;;;;5.50;2.57;;;24.40;40.70;;;;;;4797038;29;20544;-76
2022/08/09 08:00:55;;;;;;;8.23;2.87;;;24.40;40.70;;;;;;4809055;29;21285;-72
2022/08/09 08:03:21;;;;;;;5.40;2.80;;;24.40;40.60;;;;;;4807515;29;20325;-79
2022/08/09 08:05:47;;;;;;;4.40;3.23;;;24.40;40.70;;;;;;4809473;29;20230;-79
2022/08/09 08:08:13;;;;;;;3.53;2.70;;;24.40;40.70;;;;;;4810193;29;20773;-77
2022/08/09 08:10:38;;;;;;;5.70;3.03;;;24.40;40.70;;;;;;4809215;29;20226;-80
2022/08/09 08:13:04;;;;;;;2.70;2.50;;;24.40;40.70;;;;;;4797285;29;20687;-80
2022/08/09 08:15:30;;;;;;;3.00;2.67;;;24.40;40.70;;;;;;4808595;29;20229;-77
2022/08/09 08:17:56;;;;;;;6.17;2.87;;;24.30;40.60;;;;;;4810955;29;20998;-80
2022/08/09 08:20:27;;;;;;;4.10;2.63;;;24.40;40.80;;;;;;4812325;29;20470;-79
2022/08/09 08:22:52;;;;;;;2.67;2.47;;;24.30;40.60;;;;;;4809423;29;20234;-79
2022/08/09 08:25:18;;;;;;;2.87;2.67;;;24.30;40.60;;;;;;4809720;29;20477;-80
2022/08/09 08:27:43;;;;;;;2.57;2.43;;;24.30;40.60;;;;;;4810603;29;20260;-80
2022/08/09 08:30:12;;;;;;;2.80;2.47;;;24.30;40.60;;;;;;4798784;29;20238;-79
2022/08/09 08:32:38;;;;;;;2.33;2.20;;;24.30;40.60;;;;;;4791245;29;20230;-81
2022/08/09 08:35:05;;;;;;;2.87;2.50;;;24.30;40.60;;;;;;4808446;29;20469;-80
2022/08/09 08:37:31;;;;;;;2.27;2.07;;;24.30;40.60;;;;;;4808224;29;20970;-80
2022/08/09 08:39:56;;;;;;;3.47;2.70;;;24.30;40.60;;;;;;4807748;29;20473;-80
2022/08/09 08:42:22;;;;;;;2.60;2.20;;;24.30;40.60;;;;;;4809702;29;20465;-81
2022/08/09 08:44:52;;;;;;;3.00;2.33;;;24.30;40.60;;;;;;4791650;29;20325;-81
2022/08/09 08:47:18;;;;;;;2.50;2.30;;;24.30;40.60;;;;;;4805334;29;20687;-81
2022/08/09 08:49:44;;;;;;;2.90;2.70;;;24.30;40.70;;;;;;4808870;29;20467;-81
2022/08/09 08:52:10;;;;;;;3.00;2.70;;;24.30;40.60;;;;;;4790915;29;20307;-80
2022/08/09 08:54:35;;;;;;;2.47;2.27;;;24.30;40.60;;;;;;4790760;29;20784;-81
2022/08/09 08:57:03;;;;;;;3.30;2.50;;;24.30;40.70;;;;;;4806818;29;20557;-80
2022/08/09 08:59:28;;;;;;;2.83;2.47;;;24.30;40.60;;;;;;4790651;29;20234;-81
2022/08/09 09:01:55;;;;;;;2.80;2.60;;;24.30;40.70;;;;;;4806058;29;20454;-81
2022/08/09 09:04:25;;;;;;;2.33;2.23;;;24.30;40.70;;;;;;4797679;29;20242;-80
2022/08/09 09:06:56;;;;;;;2.30;2.10;;;24.30;40.70;;;;;;4792520;29;21025;-81
2022/08/09 09:09:24;;;;;;;2.83;2.63;;;24.30;40.70;;;;;;4793343;29;20981;-81
2022/08/09 09:11:51;;;;;;;2.83;2.63;;;24.30;40.70;;;;;;4786212;29;20458;-81
2022/08/09 09:14:22;;;;;;;2.73;2.60;;;24.30;40.70;;;;;;4803498;29;20458;-81
2022/08/09 09:16:48;;;;;;;2.63;2.43;;;24.30;41.50;;;;;;4805987;29;20981;-79
2022/08/09 09:19:13;;;;;;;2.37;2.27;;;24.30;40.70;;;;;;4789883;29;20454;-80
2022/08/09 09:21:58;;;;;;;2.83;2.63;;;24.30;40.70;;;;;;4805913;29;20233;-78
2022/08/09 09:24:28;;;;;;;2.93;2.73;;;24.30;40.80;;;;;;4793539;29;20261;-78
2022/08/09 09:26:59;;;;;;;2.63;2.53;;;24.30;40.70;;;;;;4806966;29;20454;-81
2022/08/09 09:29:36;;;;;;;2.73;2.63;;;24.30;40.80;;;;;;4808629;29;20727;-81
2022/08/09 09:32:03;;;;;;;2.40;2.30;;;24.30;40.70;;;;;;4807748;29;20555;-80
2022/08/09 09:34:29;;;;;;;2.77;2.67;;;24.20;40.70;;;;;;4806051;29;20505;-80
2022/08/09 09:36:56;;;;;;;2.70;2.50;;;24.30;40.80;;;;;;4793184;29;20468;-81
2022/08/09 09:39:23;;;;;;;2.60;2.40;;;24.30;40.70;;;;;;4793319;29;20246;-80
2022/08/09 09:41:50;;;;;;;2.73;2.53;;;24.30;41.60;;;;;;4806850;29;20470;-81
2022/08/09 09:44:33;;;;;;;4.33;2.80;;;24.20;40.70;;;;;;4790467;29;20467;-80
2022/08/09 09:47:15;;;;;;;3.00;2.80;;;24.20;40.70;;;;;;4804217;29;21083;-79
2022/08/09 09:49:50;;;;;;;2.30;2.20;;;24.30;40.70;;;;;;4803921;29;20467;-81
2022/08/09 09:52:15;;;;;;;3.03;2.83;;;24.20;41.50;;;;;;4806202;29;20545;-80
2022/08/09 09:54:42;;;;;;;2.80;2.60;;;24.20;40.70;;;;;;4793479;29;20554;-80
2022/08/09 09:57:17;;;;;;;2.70;2.60;;;24.20;40.70;;;;;;4809046;29;20289;-81
2022/08/09 09:59:45;;;;;;;3.17;2.97;;;24.20;40.70;;;;;;4807136;29;20458;-81
2022/08/09 10:02:12;;;;;;;2.80;2.60;;;24.20;40.70;;;;;;4788950;29;20639;-81
2022/08/09 10:04:37;;;;;;;2.70;2.53;;;24.20;40.70;;;;;;4803993;29;20507;-81
2022/08/09 10:07:04;;;;;;;2.80;2.70;;;24.20;40.70;;;;;;4792902;29;20454;-81
2022/08/09 10:09:47;;;;;;;2.80;2.70;;;24.20;40.70;;;;;;4790250;29;20226;-81
2022/08/09 10:12:26;;;;;;;2.87;2.67;;;24.20;40.70;;;;;;4793281;29;21058;-81
2022/08/09 10:15:03;;;;;;;3.30;3.10;;;24.20;40.70;;;;;;4791755;29;20500;-81
2022/08/09 10:17:33;;;;;;;2.50;2.40;;;24.20;40.70;;;;;;4806661;29;20916;-82
2022/08/09 10:20:00;;;;;;;2.90;2.70;;;24.20;40.70;;;;;;4806837;29;20475;-80
2022/08/09 10:22:34;;;;;;;3.23;3.07;;;24.20;40.70;;;;;;4806817;29;20500;-81
2022/08/09 10:25:04;;;;;;;3.23;3.03;;;24.20;40.70;;;;;;4789254;29;20476;-78
2022/08/09 10:27:30;;;;;;;3.13;2.93;;;24.20;40.80;;;;;;4804563;29;20474;-82
2022/08/09 10:29:57;;;;;;;3.53;3.33;;;24.20;40.80;;;;;;4792077;29;20459;-81
2022/08/09 10:32:24;;;;;;;2.97;2.87;;;24.20;40.70;;;;;;4794979;29;20473;-81
2022/08/09 10:34:50;;;;;;;3.47;3.27;;;24.20;40.70;;;;;;4807937;29;20467;-82
2022/08/09 10:37:17;;;;;;;3.70;3.50;;;24.20;40.80;;;;;;4808756;29;20457;-80
2022/08/09 10:39:43;;;;;;;3.70;3.50;;;24.20;40.70;;;;;;4794399;29;20469;-81
2022/08/09 10:42:08;;;;;;;3.47;3.27;;;24.20;40.70;;;;;;4791973;29;21006;-81
2022/08/09 10:44:35;;;;;;;3.70;3.50;;;24.20;40.80;;;;;;4808869;29;20316;-82
2022/08/09 10:47:15;;;;;;;3.60;3.27;;;24.20;40.70;;;;;;4811464;29;20237;-81
2022/08/09 10:49:47;;;;;;;3.70;3.50;;;24.20;40.70;;;;;;4794534;29;20477;-81
2022/08/09 10:52:28;;;;;;;3.40;3.20;;;24.20;40.80;;;;;;4805057;29;20559;-81
2022/08/09 10:54:54;;;;;;;4.40;2.90;;;24.20;40.80;;;;;;4802383;29;20839;-80
2022/08/09 10:57:22;;;;;;;3.50;3.30;;;24.20;40.80;;;;;;4796008;29;20469;-81
2022/08/09 10:59:47;;;;;;;3.40;3.20;;;24.20;40.70;;;;;;4788969;29;20308;-82
2022/08/09 11:02:34;;;;;;;3.83;3.10;;;24.20;40.80;;;;;;4793098;29;20481;-81
2022/08/09 11:05:14;;;;;;;4.33;4.03;;;24.20;40.80;;;;;;4806994;29;20306;-81
2022/08/09 11:07:40;;;;;;;3.33;3.13;;;24.20;40.80;;;;;;4804454;29;20462;-81
2022/08/09 11:10:05;;;;;;;3.70;3.50;;;24.20;40.80;;;;;;4793523;29;20464;-81
2022/08/09 11:12:31;;;;;;;3.70;3.50;;;24.20;40.80;;;;;;4809285;29;20231;-80
2022/08/09 11:15:03;;;;;;;3.77;3.57;;;24.20;40.80;;;;;;4807502;29;20237;-81
2022/08/09 11:17:31;;;;;;;3.67;3.47;;;24.20;40.80;;;;;;4797353;29;20686;-81
2022/08/09 11:20:03;;;;;;;4.20;3.90;;;24.20;40.80;;;;;;4806856;29;20475;-81
2022/08/09 11:22:43;;;;;;;3.57;3.37;;;24.20;40.80;;;;;;4810306;29;20492;-81
2022/08/09 11:25:16;;;;;;;4.07;3.87;;;24.20;41.60;;;;;;4807669;29;20875;-81
2022/08/09 11:27:45;;;;;;;3.93;3.73;;;24.20;41.60;;;;;;4806192;29;20474;-81
2022/08/09 11:30:21;;;;;;;3.30;3.10;;;24.20;40.80;;;;;;4792633;29;20964;-79
2022/08/09 11:32:55;;;;;;;3.83;3.63;;;24.20;40.80;;;;;;4807912;29;20591;-81
2022/08/09 11:35:26;;;;;;;3.83;3.63;;;24.20;40.80;;;;;;4793620;29;20874;-80
2022/08/09 11:37:56;;;;;;;3.83;3.63;;;24.20;40.90;;;;;;4793178;29;20483;-82
2022/08/09 11:40:22;;;;;;;4.27;4.07;;;24.20;40.80;;;;;;4795097;29;20452;-82
2022/08/09 11:42:48;;;;;;;4.50;4.20;;;24.20;40.90;;;;;;4792110;29;20553;-79
2022/08/09 11:45:37;;;;;;;3.97;3.77;;;24.20;40.80;;;;;;4810878;29;20698;-81
2022/08/09 11:48:27;;;;;;;3.60;3.40;;;24.20;40.80;;;;;;4807886;29;20466;-81
2022/08/09 11:50:55;;;;;;;4.40;4.10;;;24.20;40.80;;;;;;4804113;29;20518;-80
2022/08/09 11:53:22;;;;;;;5.60;4.37;;;24.20;40.90;;;;;;4794764;29;20461;-81
2022/08/09 11:55:53;;;;;;;4.13;3.93;;;24.20;40.80;;;;;;4805820;29;20476;-81
2022/08/09 11:58:19;;;;;;;4.13;3.93;;;24.20;40.90;;;;;;4794608;29;20945;-80
2022/08/09 12:00:56;;;;;;;3.80;3.60;;;24.20;40.90;;;;;;4807560;29;20448;-81
2022/08/09 12:03:23;;;;;;;3.97;3.77;;;24.20;40.90;;;;;;4809252;29;20241;-81
2022/08/09 12:05:52;;;;;;;4.30;4.10;;;24.20;40.90;;;;;;4810375;29;21102;-82
2022/08/09 12:08:20;;;;;;;3.60;3.40;;;24.20;40.90;;;;;;4804939;29;20454;-82
2022/08/09 12:10:54;;;;;;;4.83;4.53;;;24.20;40.90;;;;;;4795494;29;20506;-82
2022/08/09 12:13:38;;;;;;;4.07;3.87;;;24.20;41.00;;;;;;4809995;29;20532;-79
2022/08/09 12:16:11;;;;;;;4.60;4.40;;;24.20;40.90;;;;;;4808766;29;20468;-82
2022/08/09 12:18:41;;;;;;;4.50;4.30;;;24.20;40.90;;;;;;4804183;29;20458;-79
2022/08/09 12:21:08;;;;;;;3.73;3.53;;;24.20;40.90;;;;;;4806992;29;20998;-81
2022/08/09 12:23:41;;;;;;;4.70;4.50;;;24.20;41.00;;;;;;4811676;29;20488;-82
2022/08/09 12:26:06;;;;;;;4.90;4.70;;;24.20;40.90;;;;;;4804551;29;20455;-81
2022/08/09 12:28:33;;;;;;;4.40;4.20;;;24.20;41.00;;;;;;4795161;29;20485;-82
2022/08/09 12:30:59;;;;;;;4.43;4.23;;;24.20;41.00;;;;;;4795068;29;20223;-82
2022/08/09 12:33:25;;;;;;;4.93;4.73;;;24.20;41.00;;;;;;4791271;29;20450;-82
2022/08/09 12:36:03;;;;;;;4.93;4.63;;;24.20;41.00;;;;;;4808829;29;20954;-82
2022/08/09 12:38:29;;;;;;;5.30;5.00;;;24.20;40.90;;;;;;4809255;29;20226;-81
2022/08/09 12:40:57;;;;;;;4.27;3.97;;;24.20;41.00;;;;;;4807910;29;20530;-82
2022/08/09 12:43:27;;;;;;;4.23;4.03;;;24.20;41.00;;;;;;4814166;29;20858;-82
2022/08/09 12:45:55;;;;;;;4.70;4.40;;;24.20;41.00;;;;;;4792578;29;20453;-82
2022/08/09 12:48:22;;;;;;;5.00;4.70;;;24.20;41.00;;;;;;4806077;29;20481;-81
2022/08/09 12:50:49;;;;;;;4.50;4.30;;;24.20;41.00;;;;;;4811501;29;20463;-81